San Vicent del Raspeig, Spain
Current Conditions -  °F | °C
As of 7:30 AM on Friday 28 Nov 2014 (Local Time) from LEAL Reporting Station
Scattered Clouds Scattered Clouds  
Wind Chill: 61°   Ceiling: Unl
Heat Index: 61°   Visibility: 6mi
Dew Point: 54°   Wind: 5mph
Humidity: 77%   Direction: 170°S
Pressure: 29.26"   Gusts: NA
Location:  38.4°N, 0.53°W
Report Text: LEAL 280630Z 17004KT 110V230 9999 SCT025 16/12 Q0991 NOSIG
Loading
Personal Weather Stations






























Interactive Weather Map New forecast layout! Learn more

10-Day Weather Forecast

Advertisements
Track Severe Weather on mobile